createdAt,value
2023-04-13T00:04:50.696Z,19.67
2023-04-13T00:09:55.403Z,16.98
2023-04-13T00:14:58.852Z,17.92
2023-04-13T00:20:08.200Z,20.75
2023-04-13T00:25:14.822Z,18.88
2023-04-13T00:30:20.133Z,15.98
2023-04-13T00:35:25.202Z,16.98
2023-04-13T00:40:30.246Z,20.25
2023-04-13T00:45:38.929Z,17.98
2023-04-13T00:50:43.567Z,17.27
2023-04-13T00:55:49.045Z,17.52
2023-04-13T01:00:52.678Z,16.35
2023-04-13T01:06:07.748Z,15.13
2023-04-13T01:11:19.293Z,15.70
2023-04-13T01:16:28.212Z,16.63
2023-04-13T01:21:34.546Z,19.83
2023-04-13T01:26:54.470Z,16.17
2023-04-13T01:32:00.635Z,15.65
2023-04-13T01:37:05.746Z,15.00
2023-04-13T01:42:09.218Z,15.55
2023-04-13T01:47:21.485Z,14.68
2023-04-13T01:52:27.897Z,15.63
2023-04-13T01:57:32.670Z,15.50
2023-04-13T02:02:38.174Z,15.70
2023-04-13T02:07:44.841Z,19.27
2023-04-13T02:12:50.114Z,16.90
2023-04-13T02:17:55.106Z,14.77
2023-04-13T02:22:58.782Z,12.07
2023-04-13T02:28:02.191Z,17.70
2023-04-13T02:33:09.632Z,16.42
2023-04-13T02:38:13.157Z,14.50
2023-04-13T02:43:17.713Z,13.05
2023-04-13T02:48:22.873Z,16.08
2023-04-13T02:53:26.302Z,15.93
2023-04-13T02:58:33.133Z,16.92
2023-04-13T03:03:37.992Z,18.08
2023-04-13T03:08:41.355Z,17.40
2023-04-13T03:13:44.801Z,17.65
2023-04-13T03:18:51.480Z,17.05
2023-04-13T03:23:54.950Z,18.98
2023-04-13T03:28:58.598Z,16.00
2023-04-13T03:34:03.683Z,18.45
2023-04-13T03:39:07.119Z,16.52
2023-04-13T03:44:10.841Z,19.83
2023-04-13T03:49:15.601Z,16.58
2023-04-13T03:54:19.003Z,14.30
2023-04-13T03:59:22.966Z,17.40
2023-04-13T04:04:27.857Z,15.77
2023-04-13T04:09:31.378Z,16.20
2023-04-13T04:14:35.441Z,17.02
2023-04-13T04:19:40.207Z,16.92
2023-04-13T04:24:43.656Z,16.35
2023-04-13T04:29:49.424Z,19.42
2023-04-13T04:34:54.309Z,18.05
2023-04-13T04:39:57.720Z,17.98
2023-04-13T04:45:01.535Z,18.83
2023-04-13T04:50:07.041Z,21.40
2023-04-13T04:55:11.216Z,23.13
2023-04-13T05:00:17.400Z,20.35
2023-04-13T05:05:22.671Z,22.05
2023-04-13T05:10:28.336Z,22.50
2023-04-13T05:15:31.895Z,23.30
2023-04-13T05:20:37.839Z,22.17
2023-04-13T05:25:41.282Z,21.17
2023-04-13T05:30:45.035Z,20.75
2023-04-13T05:35:49.742Z,22.88
2023-04-13T05:40:53.633Z,27.02
2023-04-13T05:45:57.087Z,28.52
2023-04-13T05:51:01.881Z,36.45
2023-04-13T05:56:06.178Z,39.58
2023-04-13T06:01:11.597Z,43.75
2023-04-13T06:06:43.433Z,42.50
2023-04-13T06:11:48.209Z,32.53
2023-04-13T06:16:53.240Z,36.22
2023-04-13T06:21:57.185Z,34.55
2023-04-13T06:27:02.056Z,33.53
2023-04-13T06:32:07.603Z,36.50
2023-04-13T06:37:11.038Z,40.63
2023-04-13T06:42:16.300Z,33.55
2023-04-13T06:47:19.778Z,27.27
2023-04-13T06:52:23.218Z,29.60
2023-04-13T06:57:28.363Z,28.65
2023-04-13T07:02:32.216Z,27.05
2023-04-13T07:07:36.083Z,24.70
2023-04-13T07:12:41.186Z,26.27
2023-04-13T07:17:44.649Z,28.05
2023-04-13T07:22:48.245Z,25.20
2023-04-13T07:27:53.237Z,36.50
2023-04-13T07:32:57.326Z,26.17
2023-04-13T07:38:00.841Z,25.33
2023-04-13T07:43:06.015Z,25.20
2023-04-13T07:48:09.405Z,25.10
2023-04-13T07:53:12.900Z,26.13
2023-04-13T07:58:17.633Z,23.10
2023-04-13T08:03:21.501Z,19.45
2023-04-13T08:08:25.100Z,21.30
2023-04-13T08:13:31.461Z,27.98
2023-04-13T08:18:35.531Z,20.70
2023-04-13T08:23:42.264Z,15.48
2023-04-13T08:28:49.208Z,13.52
2023-04-13T08:33:52.689Z,15.20
2023-04-13T08:38:56.071Z,15.95
2023-04-13T08:44:05.718Z,19.98
2023-04-13T08:49:11.700Z,15.82
2023-04-13T08:54:16.426Z,16.73
2023-04-13T08:59:23.735Z,19.10
2023-04-13T09:04:33.272Z,17.58
2023-04-13T09:09:40.015Z,15.60
2023-04-13T09:14:46.925Z,19.70
2023-04-13T09:19:51.292Z,17.90
2023-04-13T09:24:54.761Z,15.75
2023-04-13T09:30:01.064Z,13.68
2023-04-13T09:35:08.171Z,14.05
2023-04-13T09:40:13.761Z,12.68
2023-04-13T09:45:18.792Z,13.60
2023-04-13T09:50:24.452Z,17.38
2023-04-13T09:55:28.907Z,16.33
2023-04-13T10:00:34.015Z,13.48
2023-04-13T10:05:51.069Z,11.30
2023-04-13T10:11:02.407Z,15.43
2023-04-13T10:16:21.277Z,9.63
2023-04-13T10:21:26.698Z,9.25
2023-04-13T10:26:33.271Z,11.57
2023-04-13T10:31:39.615Z,8.90
2023-04-13T10:36:47.011Z,3.25
2023-04-13T10:42:00.151Z,2.97
2023-04-13T10:52:11.606Z,3.85
2023-04-13T10:57:15.044Z,1.77
2023-04-13T11:02:20.691Z,3.10
2023-04-13T11:07:27.078Z,3.55
2023-04-13T11:12:30.551Z,2.13
2023-04-13T11:17:35.390Z,2.88
2023-04-13T11:22:39.626Z,5.88
2023-04-13T11:27:43.204Z,2.83
2023-04-13T11:32:48.647Z,5.97
2023-04-13T11:37:53.992Z,2.60
2023-04-13T11:42:58.862Z,2.75
2023-04-13T11:48:06.489Z,2.70
2023-04-13T11:53:11.171Z,3.35
2023-04-13T11:58:16.964Z,4.20
2023-04-13T12:03:38.274Z,4.70
2023-04-13T12:08:57.550Z,3.88
2023-04-13T12:14:10.189Z,3.97
2023-04-13T12:19:26.818Z,3.47
2023-04-13T12:24:37.869Z,3.88
2023-04-13T12:29:42.025Z,2.47
2023-04-13T12:40:13.394Z,2.70
2023-04-13T12:45:17.695Z,3.35
2023-04-13T12:50:21.737Z,3.78
2023-04-13T12:55:27.061Z,1.35
2023-04-13T13:00:30.815Z,1.80
2023-04-13T13:05:34.750Z,2.85
2023-04-13T13:16:19.644Z,1.63
2023-04-13T13:21:23.859Z,1.40
2023-04-13T13:26:30.606Z,1.05
2023-04-13T13:31:45.153Z,1.60
2023-04-13T13:36:49.715Z,2.80
2023-04-13T13:41:53.167Z,2.35
2023-04-13T13:46:58.215Z,3.63
2023-04-13T13:52:01.990Z,2.63
2023-04-13T13:57:05.506Z,1.58
2023-04-13T14:02:10.464Z,3.33
2023-04-13T14:07:14.502Z,2.08
2023-04-13T14:12:18.363Z,1.73
2023-04-13T14:17:23.229Z,1.58
2023-04-13T14:22:26.936Z,1.67
2023-04-13T14:27:30.765Z,2.80
2023-04-13T14:32:35.903Z,3.65
2023-04-13T14:37:39.412Z,2.03
2023-04-13T14:42:43.067Z,2.92
2023-04-13T14:47:48.148Z,3.75
2023-04-13T14:52:52.333Z,3.58
2023-04-13T14:57:58.381Z,3.58
2023-04-13T15:03:03.492Z,3.03
2023-04-13T15:08:08.485Z,5.03
2023-04-13T15:13:12.127Z,5.78
2023-04-13T15:18:17.581Z,6.53
2023-04-13T15:23:21.218Z,6.60
2023-04-13T15:28:24.781Z,8.18
2023-04-13T15:33:29.615Z,8.32
2023-04-13T15:38:33.221Z,6.97
2023-04-13T15:43:36.710Z,4.38
2023-04-13T15:48:41.513Z,5.68
2023-04-13T15:53:44.945Z,5.90
2023-04-13T15:58:48.689Z,6.95
2023-04-13T16:03:54.919Z,3.42
2023-04-13T16:08:59.454Z,4.82
2023-04-13T16:14:07.441Z,5.03
2023-04-13T16:19:13.107Z,8.23
2023-04-13T16:24:17.845Z,6.93
2023-04-13T16:29:21.955Z,9.32
2023-04-13T16:34:27.944Z,8.07
2023-04-13T16:39:31.425Z,5.80
2023-04-13T16:44:34.880Z,5.53
2023-04-13T16:49:39.740Z,8.65
2023-04-13T16:54:44.478Z,7.20
2023-04-13T16:59:48.547Z,9.80
2023-04-13T17:04:54.619Z,10.73
2023-04-13T17:09:58.083Z,6.93
2023-04-13T17:15:02.281Z,6.80
2023-04-13T17:20:08.647Z,6.68
2023-04-13T17:25:12.146Z,8.75
2023-04-13T17:30:16.119Z,10.05
2023-04-13T17:35:20.999Z,10.20
2023-04-13T17:40:24.477Z,12.35
2023-04-13T17:45:27.950Z,8.55
2023-04-13T17:50:33.863Z,6.63
2023-04-13T17:55:37.588Z,7.38
2023-04-13T18:00:41.364Z,7.28
2023-04-13T18:05:46.618Z,8.77
2023-04-13T18:10:50.100Z,11.13
2023-04-13T18:15:53.828Z,8.18
2023-04-13T18:20:58.726Z,6.88
2023-04-13T18:26:02.916Z,9.95
2023-04-13T18:31:07.193Z,7.47
2023-04-13T18:36:15.273Z,9.65
2023-04-13T18:41:21.187Z,6.72
2023-04-13T18:46:26.507Z,7.05
2023-04-13T18:51:32.899Z,12.20
2023-04-13T18:56:36.391Z,9.07
2023-04-13T19:01:39.889Z,6.30
2023-04-13T19:06:45.494Z,8.48
2023-04-13T19:11:51.274Z,7.13
2023-04-13T19:16:55.977Z,8.45
2023-04-13T19:22:01.130Z,8.73
2023-04-13T19:27:04.738Z,9.23
2023-04-13T19:32:11.889Z,9.80
2023-04-13T19:37:17.350Z,12.15
2023-04-13T19:42:20.820Z,9.43
2023-04-13T19:47:25.175Z,13.60
2023-04-13T19:52:32.160Z,10.75
2023-04-13T19:57:40.439Z,11.98
2023-04-13T20:02:44.892Z,10.43
2023-04-13T20:07:51.875Z,10.02
2023-04-13T20:12:55.366Z,12.38
2023-04-13T20:17:59.521Z,13.95
2023-04-13T20:23:05.413Z,11.13
2023-04-13T20:28:10.341Z,10.18
2023-04-13T20:33:14.097Z,10.73
2023-04-13T20:38:18.851Z,10.50
2023-04-13T20:43:23.109Z,12.43
2023-04-13T20:53:38.290Z,11.05
2023-04-13T20:58:41.983Z,11.70
2023-04-13T21:03:45.965Z,10.48
2023-04-13T21:08:52.740Z,12.38
2023-04-13T21:13:56.260Z,12.48
2023-04-13T21:19:00.225Z,11.52
2023-04-13T21:24:05.242Z,10.77
2023-04-13T21:29:10.146Z,9.40
2023-04-13T21:34:13.679Z,10.23
2023-04-13T21:39:18.631Z,6.03
2023-04-13T21:44:29.751Z,5.30
2023-04-13T21:49:33.906Z,5.13
2023-04-13T21:54:39.024Z,7.18
2023-04-13T21:59:42.524Z,5.18
2023-04-13T22:04:45.917Z,4.75
2023-04-13T22:09:51.022Z,7.75
2023-04-13T22:14:54.513Z,4.97
2023-04-13T22:19:58.699Z,6.13
2023-04-13T22:25:03.573Z,5.47
2023-04-13T22:30:08.417Z,5.68
2023-04-13T22:35:12.246Z,5.90
2023-04-13T22:40:17.370Z,7.45
2023-04-13T22:45:21.022Z,7.05
2023-04-13T22:50:25.670Z,6.32
2023-04-13T22:55:30.649Z,5.68
2023-04-13T23:00:34.052Z,6.90
2023-04-13T23:05:37.529Z,7.70
2023-04-13T23:10:42.239Z,6.07
2023-04-13T23:15:45.910Z,5.43
2023-04-13T23:20:49.408Z,6.72
2023-04-13T23:25:54.132Z,9.15
2023-04-13T23:31:04.065Z,7.68
2023-04-13T23:36:08.312Z,9.25
2023-04-13T23:41:13.090Z,10.55
2023-04-13T23:46:17.241Z,10.05
2023-04-13T23:51:20.630Z,9.95
2023-04-13T23:56:26.107Z,9.75
